createdAt,value
2023-04-12T00:01:41.466Z,4.41
2023-04-12T00:04:10.202Z,4.52
2023-04-12T00:06:38.298Z,4.66
2023-04-12T00:09:08.597Z,4.96
2023-04-12T00:11:36.510Z,5.11
2023-04-12T00:14:04.338Z,5.29
2023-04-12T00:16:32.541Z,5.55
2023-04-12T00:19:01.827Z,5.86
2023-04-12T00:21:29.879Z,6.23
2023-04-12T00:23:57.877Z,6.43
2023-04-12T00:26:27.307Z,6.68
2023-04-12T00:28:55.097Z,6.75
2023-04-12T00:31:23.017Z,6.79
2023-04-12T00:33:50.888Z,6.91
2023-04-12T00:36:18.807Z,7.00
2023-04-12T00:38:46.785Z,7.04
2023-04-12T00:41:15.358Z,7.14
2023-04-12T00:43:44.684Z,7.20
2023-04-12T00:46:12.990Z,7.09
2023-04-12T00:48:41.169Z,7.04
2023-04-12T00:51:09.347Z,6.83
2023-04-12T00:53:39.275Z,6.87
2023-04-12T00:56:11.878Z,6.72
2023-04-12T00:58:40.608Z,6.59
2023-04-12T01:01:10.577Z,6.43
2023-04-12T01:03:43.358Z,6.21
2023-04-12T01:06:15.007Z,5.97
2023-04-12T01:08:55.847Z,5.70
2023-04-12T01:11:32.269Z,5.47
2023-04-12T01:14:08.179Z,5.29
2023-04-12T01:16:44.393Z,5.31
2023-04-12T01:19:30.976Z,5.29
2023-04-12T01:22:14.509Z,5.32
2023-04-12T01:24:52.945Z,5.44
2023-04-12T01:27:35.705Z,5.43
2023-04-12T01:30:07.463Z,5.24
2023-04-12T01:32:37.788Z,5.13
2023-04-12T01:35:09.170Z,5.05
2023-04-12T01:37:37.869Z,5.10
2023-04-12T01:40:09.144Z,4.98
2023-04-12T01:42:38.356Z,4.98
2023-04-12T01:45:07.641Z,5.01
2023-04-12T01:47:35.751Z,4.98
2023-04-12T01:50:13.113Z,4.82
2023-04-12T01:52:46.797Z,4.80
2023-04-12T01:55:16.154Z,4.74
2023-04-12T01:57:48.428Z,4.82
2023-04-12T02:00:18.058Z,4.86
2023-04-12T02:02:46.070Z,4.81
2023-04-12T02:05:14.157Z,4.77
2023-04-12T02:07:43.035Z,4.76
2023-04-12T02:10:14.634Z,4.74
2023-04-12T02:12:42.417Z,4.63
2023-04-12T02:15:12.826Z,4.50
2023-04-12T02:17:41.021Z,4.43
2023-04-12T02:20:11.963Z,4.30
2023-04-12T02:22:39.865Z,4.13
2023-04-12T02:25:08.161Z,4.01
2023-04-12T02:27:35.958Z,3.91
2023-04-12T02:30:04.620Z,3.79
2023-04-12T02:32:45.089Z,3.56
2023-04-12T02:35:14.215Z,3.61
2023-04-12T02:37:44.126Z,3.50
2023-04-12T02:40:14.384Z,3.43
2023-04-12T02:42:42.504Z,3.41
2023-04-12T02:45:11.525Z,3.27
2023-04-12T02:47:41.712Z,3.14
2023-04-12T02:50:10.037Z,3.04
2023-04-12T02:52:38.171Z,2.91
2023-04-12T02:55:07.010Z,2.85
2023-04-12T02:57:35.269Z,2.84
2023-04-12T03:00:08.296Z,2.92
2023-04-12T03:02:36.925Z,2.85
2023-04-12T03:05:07.691Z,2.79
2023-04-12T03:07:36.167Z,2.71
2023-04-12T03:10:05.225Z,2.66
2023-04-12T03:12:33.065Z,2.62
2023-04-12T03:15:01.191Z,2.66
2023-04-12T03:17:29.083Z,2.74
2023-04-12T03:19:58.179Z,3.29
2023-04-12T03:22:27.418Z,3.60
2023-04-12T03:24:55.322Z,3.73
2023-04-12T03:27:23.177Z,3.92
2023-04-12T03:29:52.323Z,4.02
2023-04-12T03:32:20.777Z,4.19
2023-04-12T03:34:48.760Z,4.22
2023-04-12T03:37:16.666Z,4.25
2023-04-12T03:39:48.138Z,4.30
2023-04-12T03:42:29.943Z,4.37
2023-04-12T03:44:59.970Z,4.39
2023-04-12T03:47:28.089Z,4.37
2023-04-12T03:50:09.559Z,4.32
2023-04-12T03:52:39.596Z,4.32
2023-04-12T03:55:12.003Z,4.31
2023-04-12T03:57:40.040Z,4.45
2023-04-12T04:00:09.893Z,4.49
2023-04-12T04:02:38.677Z,4.49
2023-04-12T04:05:07.254Z,4.59
2023-04-12T04:07:36.781Z,4.60
2023-04-12T04:10:05.752Z,4.61
2023-04-12T04:12:35.124Z,4.60
2023-04-12T04:15:02.987Z,4.63
2023-04-12T04:17:30.808Z,4.70
2023-04-12T04:19:58.654Z,4.74
2023-04-12T04:22:26.548Z,4.75
2023-04-12T04:24:55.884Z,4.77
2023-04-12T04:27:23.888Z,4.79
2023-04-12T04:29:58.257Z,4.84
2023-04-12T04:32:26.908Z,4.83
2023-04-12T04:34:57.369Z,4.83
2023-04-12T04:37:25.807Z,4.85
2023-04-12T04:39:53.614Z,4.83
2023-04-12T04:42:21.563Z,4.84
2023-04-12T04:44:51.205Z,4.80
2023-04-12T04:47:22.334Z,4.86
2023-04-12T04:49:50.896Z,4.91
2023-04-12T04:52:19.718Z,4.95
2023-04-12T04:54:47.790Z,5.01
2023-04-12T04:57:15.819Z,5.05
2023-04-12T04:59:43.664Z,5.07
2023-04-12T05:02:12.133Z,5.16
2023-04-12T05:04:41.554Z,5.19
2023-04-12T05:07:09.538Z,5.23
2023-04-12T05:09:37.580Z,5.26
2023-04-12T05:12:05.968Z,5.29
2023-04-12T05:14:46.635Z,5.37
2023-04-12T05:17:16.048Z,5.49
2023-04-12T05:19:45.432Z,5.57
2023-04-12T05:22:14.650Z,5.53
2023-04-12T05:24:42.632Z,5.71
2023-04-12T05:27:10.651Z,5.86
2023-04-12T05:29:38.501Z,6.08
2023-04-12T05:32:06.542Z,6.17
2023-04-12T05:34:34.397Z,6.37
2023-04-12T05:37:06.613Z,6.75
2023-04-12T05:39:34.970Z,7.04
2023-04-12T05:42:02.778Z,7.45
2023-04-12T05:44:30.563Z,7.69
2023-04-12T05:46:58.426Z,8.00
2023-04-12T05:49:30.066Z,8.27
2023-04-12T05:51:58.393Z,8.50
2023-04-12T05:54:27.856Z,8.80
2023-04-12T05:56:57.205Z,8.89
2023-04-12T05:59:25.043Z,9.10
2023-04-12T06:01:52.903Z,9.18
2023-04-12T06:04:20.955Z,9.27
2023-04-12T06:06:49.862Z,9.40
2023-04-12T06:09:17.802Z,9.18
2023-04-12T06:11:46.912Z,9.36
2023-04-12T06:14:14.857Z,9.53
2023-04-12T06:16:42.909Z,9.59
2023-04-12T06:19:13.686Z,9.91
2023-04-12T06:21:41.771Z,10.02
2023-04-12T06:24:09.826Z,9.97
2023-04-12T06:26:40.009Z,10.06
2023-04-12T06:29:10.097Z,10.37
2023-04-12T06:31:38.534Z,10.55
2023-04-12T06:34:06.647Z,10.68
2023-04-12T06:36:34.964Z,10.97
2023-04-12T06:39:03.927Z,11.27
2023-04-12T06:41:32.056Z,11.35
2023-04-12T06:43:59.858Z,11.24
2023-04-12T06:46:30.045Z,11.34
2023-04-12T06:48:58.143Z,11.91
2023-04-12T06:51:26.212Z,12.20
2023-04-12T06:53:54.124Z,12.41
2023-04-12T06:56:22.287Z,12.79
2023-04-12T06:58:50.414Z,12.83
2023-04-12T07:01:19.281Z,12.97
2023-04-12T07:03:48.677Z,13.19
2023-04-12T07:06:25.055Z,13.29
2023-04-12T07:08:54.712Z,13.26
2023-04-12T07:11:24.003Z,13.37
2023-04-12T07:13:52.378Z,12.97
2023-04-12T07:16:20.500Z,12.68
2023-04-12T07:18:50.354Z,12.94
2023-04-12T07:21:18.606Z,13.42
2023-04-12T07:23:47.576Z,13.61
2023-04-12T07:26:15.570Z,13.41
2023-04-12T07:28:43.381Z,13.85
2023-04-12T07:31:11.406Z,13.97
2023-04-12T07:33:40.686Z,14.04
2023-04-12T07:36:12.762Z,13.98
2023-04-12T07:38:40.787Z,14.07
2023-04-12T07:41:08.940Z,14.17
2023-04-12T07:43:36.821Z,14.12
2023-04-12T07:46:08.603Z,14.20
2023-04-12T07:48:36.825Z,14.04
2023-04-12T07:51:05.405Z,14.09
2023-04-12T07:53:34.970Z,13.72
2023-04-12T07:56:05.082Z,13.80
2023-04-12T07:58:35.709Z,13.93
2023-04-12T08:01:03.742Z,14.13
2023-04-12T08:03:31.872Z,14.34
2023-04-12T08:06:00.498Z,14.51
2023-04-12T08:08:28.393Z,15.10
2023-04-12T08:10:57.587Z,15.41
2023-04-12T08:13:28.394Z,15.55
2023-04-12T08:15:56.388Z,15.72
2023-04-12T08:18:24.387Z,15.64
2023-04-12T08:20:52.225Z,15.13
2023-04-12T08:23:20.156Z,15.48
2023-04-12T08:25:48.013Z,15.80
2023-04-12T08:28:17.385Z,15.87
2023-04-12T08:30:45.279Z,16.42
2023-04-12T08:33:13.125Z,16.88
2023-04-12T08:35:41.169Z,17.49
2023-04-12T08:38:09.246Z,17.95
2023-04-12T08:40:38.182Z,18.15
2023-04-12T08:43:08.781Z,18.24
2023-04-12T08:45:39.194Z,17.86
2023-04-12T08:48:07.354Z,17.58
2023-04-12T08:50:35.552Z,18.03
2023-04-12T08:53:04.452Z,17.95
2023-04-12T08:55:32.412Z,18.23
2023-04-12T08:58:00.958Z,17.96
2023-04-12T09:00:40.554Z,19.08
2023-04-12T09:03:10.599Z,19.38
2023-04-12T09:05:38.645Z,18.94
2023-04-12T09:08:06.956Z,18.65
2023-04-12T09:10:37.088Z,18.47
2023-04-12T09:13:06.031Z,19.16
2023-04-12T09:15:35.900Z,20.18
2023-04-12T09:18:08.220Z,20.52
2023-04-12T09:20:37.010Z,20.57
2023-04-12T09:23:19.289Z,20.77
2023-04-12T09:25:48.553Z,20.95
2023-04-12T09:28:21.506Z,21.52
2023-04-12T09:30:51.814Z,21.53
2023-04-12T09:33:23.308Z,21.22
2023-04-12T09:35:51.557Z,21.01
2023-04-12T09:38:19.855Z,21.26
2023-04-12T09:40:48.672Z,21.86
2023-04-12T09:43:16.671Z,22.80
2023-04-12T09:45:47.373Z,22.49
2023-04-12T09:48:22.043Z,22.52
2023-04-12T09:50:50.055Z,22.80
2023-04-12T09:53:19.334Z,23.00
2023-04-12T09:55:49.903Z,22.33
2023-04-12T09:58:20.521Z,22.55
2023-04-12T10:00:48.936Z,22.99
2023-04-12T10:03:17.253Z,22.80
2023-04-12T10:05:46.908Z,24.20
2023-04-12T10:08:15.633Z,22.84
2023-04-12T10:10:45.845Z,23.25
2023-04-12T10:13:18.455Z,23.75
2023-04-12T10:15:51.148Z,24.30
2023-04-12T10:18:19.720Z,24.45
2023-04-12T10:20:48.966Z,25.22
2023-04-12T10:23:17.844Z,24.90
2023-04-12T10:25:48.041Z,26.10
2023-04-12T10:28:17.477Z,25.69
2023-04-12T10:30:48.201Z,24.68
2023-04-12T10:33:18.000Z,23.28
2023-04-12T10:36:00.736Z,21.83
2023-04-12T10:38:34.554Z,22.49
2023-04-12T10:41:25.158Z,23.04
2023-04-12T10:43:53.797Z,23.02
2023-04-12T10:46:58.546Z,24.14
2023-04-12T10:49:26.799Z,23.28
2023-04-12T10:52:18.607Z,23.98
2023-04-12T10:54:47.089Z,23.84
2023-04-12T10:57:45.412Z,23.73
2023-04-12T11:00:14.439Z,23.33
2023-04-12T11:03:09.872Z,23.21
2023-04-12T11:06:12.651Z,22.40
2023-04-12T11:08:51.064Z,21.12
2023-04-12T11:11:22.649Z,19.84
2023-04-12T11:13:56.263Z,19.09
2023-04-12T11:16:24.328Z,18.86
2023-04-12T11:18:55.448Z,18.94
2023-04-12T11:21:24.135Z,18.76
2023-04-12T11:23:56.483Z,18.04
2023-04-12T11:26:25.409Z,18.27
2023-04-12T11:28:55.964Z,18.23
2023-04-12T11:31:24.516Z,18.88
2023-04-12T11:33:52.410Z,19.48
2023-04-12T11:36:20.402Z,19.39
2023-04-12T11:38:50.263Z,18.80
2023-04-12T11:41:19.831Z,19.04
2023-04-12T11:43:49.526Z,19.13
2023-04-12T11:46:18.441Z,20.04
2023-04-12T11:48:47.459Z,21.71
2023-04-12T11:51:22.387Z,22.53
2023-04-12T11:53:54.490Z,23.48
2023-04-12T11:56:24.211Z,24.44
2023-04-12T11:58:52.845Z,25.06
2023-04-12T12:01:21.959Z,25.66
2023-04-12T12:03:51.130Z,25.94
2023-04-12T12:06:19.960Z,24.68
2023-04-12T12:08:49.800Z,24.64
2023-04-12T12:11:17.717Z,23.82
2023-04-12T12:13:48.569Z,24.75
2023-04-12T12:16:17.700Z,24.64
2023-04-12T12:18:46.811Z,24.84
2023-04-12T12:21:16.021Z,25.97
2023-04-12T12:23:46.278Z,25.07
2023-04-12T12:26:21.857Z,25.61
2023-04-12T12:28:56.348Z,25.37
2023-04-12T12:31:28.059Z,25.53
2023-04-12T12:33:57.851Z,25.99
2023-04-12T12:36:32.912Z,25.52
2023-04-12T12:39:07.472Z,26.27
2023-04-12T12:41:35.591Z,26.70
2023-04-12T12:44:04.902Z,26.43
2023-04-12T12:46:50.710Z,25.99
2023-04-12T12:49:20.397Z,25.99
2023-04-12T12:51:48.490Z,26.34
2023-04-12T12:54:32.299Z,26.12
2023-04-12T12:57:06.614Z,26.64
2023-04-12T12:59:35.993Z,25.78
2023-04-12T13:02:04.017Z,26.03
2023-04-12T13:04:32.738Z,26.02
2023-04-12T13:07:00.677Z,26.52
2023-04-12T13:09:28.613Z,26.81
2023-04-12T13:11:57.326Z,25.78
2023-04-12T13:14:25.240Z,26.32
2023-04-12T13:16:54.598Z,26.97
2023-04-12T13:19:24.334Z,26.89
2023-04-12T13:21:53.302Z,26.52
2023-04-12T13:24:21.407Z,26.52
2023-04-12T13:26:49.550Z,25.90
2023-04-12T13:29:17.495Z,26.36
2023-04-12T13:31:45.427Z,25.79
2023-04-12T13:34:14.769Z,24.75
2023-04-12T13:36:44.768Z,25.46
2023-04-12T13:39:12.861Z,26.24
2023-04-12T13:41:41.018Z,25.86
2023-04-12T13:44:11.102Z,24.42
2023-04-12T13:46:39.015Z,22.95
2023-04-12T13:49:07.194Z,21.25
2023-04-12T13:51:36.614Z,21.31
2023-04-12T13:54:04.514Z,21.83
2023-04-12T13:56:32.472Z,20.67
2023-04-12T13:59:00.741Z,20.54
2023-04-12T14:01:28.637Z,20.63
2023-04-12T14:03:57.139Z,20.18
2023-04-12T14:06:25.192Z,19.65
2023-04-12T14:08:54.629Z,20.23
2023-04-12T14:11:24.872Z,21.42
2023-04-12T14:13:52.894Z,21.85
2023-04-12T14:16:21.162Z,22.55
2023-04-12T14:18:49.352Z,21.87
2023-04-12T14:21:17.842Z,20.22
2023-04-12T14:23:45.829Z,19.92
2023-04-12T14:26:17.170Z,19.26
2023-04-12T14:28:45.058Z,18.13
2023-04-12T14:31:14.970Z,16.76
2023-04-12T14:33:43.183Z,16.08
2023-04-12T14:36:13.047Z,16.04
2023-04-12T14:38:42.057Z,15.83
2023-04-12T14:41:13.995Z,15.52
2023-04-12T14:43:45.842Z,15.53
2023-04-12T14:46:14.219Z,17.02
2023-04-12T14:48:42.526Z,18.83
2023-04-12T14:51:10.470Z,20.27
2023-04-12T14:53:38.436Z,20.57
2023-04-12T14:56:17.106Z,20.80
2023-04-12T14:58:46.474Z,20.60
2023-04-12T15:01:14.436Z,21.01
2023-04-12T15:03:42.864Z,21.08
2023-04-12T15:06:11.231Z,20.41
2023-04-12T15:08:43.009Z,19.55
2023-04-12T15:11:11.902Z,17.60
2023-04-12T15:13:44.379Z,16.02
2023-04-12T15:16:15.065Z,15.51
2023-04-12T15:18:42.978Z,15.11
2023-04-12T15:21:11.947Z,14.93
2023-04-12T15:23:42.565Z,14.45
2023-04-12T15:26:10.682Z,13.91
2023-04-12T15:28:39.333Z,13.38
2023-04-12T15:31:08.665Z,13.04
2023-04-12T15:33:37.899Z,12.81
2023-04-12T15:36:06.640Z,12.75
2023-04-12T15:38:42.273Z,12.67
2023-04-12T15:41:10.577Z,12.51
2023-04-12T15:43:38.653Z,12.29
2023-04-12T15:46:07.274Z,12.06
2023-04-12T15:48:38.723Z,12.02
2023-04-12T15:51:08.413Z,12.20
2023-04-12T15:53:36.314Z,12.57
2023-04-12T15:56:04.511Z,13.07
2023-04-12T15:58:32.502Z,13.39
2023-04-12T16:01:00.431Z,13.44
2023-04-12T16:03:28.927Z,13.35
2023-04-12T16:05:58.241Z,13.29
2023-04-12T16:08:28.935Z,13.03
2023-04-12T16:10:56.896Z,13.22
2023-04-12T16:13:24.860Z,13.36
2023-04-12T16:15:55.860Z,13.23
2023-04-12T16:18:31.405Z,12.81
2023-04-12T16:20:59.885Z,12.41
2023-04-12T16:23:29.587Z,12.05
2023-04-12T16:25:59.884Z,11.60
2023-04-12T16:28:28.115Z,11.49
2023-04-12T16:30:56.525Z,11.28
2023-04-12T16:33:24.441Z,11.27
2023-04-12T16:35:52.250Z,11.21
2023-04-12T16:38:20.109Z,11.14
2023-04-12T16:40:49.384Z,11.11
2023-04-12T16:43:17.748Z,11.25
2023-04-12T16:45:49.303Z,11.29
2023-04-12T16:48:17.413Z,11.35
2023-04-12T16:50:47.419Z,11.23
2023-04-12T16:53:16.415Z,11.15
2023-04-12T16:55:47.222Z,11.01
2023-04-12T16:58:17.049Z,10.83
2023-04-12T17:00:45.470Z,10.99
2023-04-12T17:03:14.116Z,10.74
2023-04-12T17:05:42.373Z,10.67
2023-04-12T17:08:10.544Z,10.53
2023-04-12T17:10:38.525Z,10.39
2023-04-12T17:13:06.401Z,10.20
2023-04-12T17:15:36.114Z,10.06
2023-04-12T17:18:06.207Z,9.93
2023-04-12T17:20:34.874Z,9.79
2023-04-12T17:23:03.152Z,9.71
2023-04-12T17:25:32.074Z,9.66
2023-04-12T17:28:00.611Z,9.49
2023-04-12T17:30:28.506Z,9.48
2023-04-12T17:33:01.001Z,9.44
2023-04-12T17:35:30.092Z,9.35
2023-04-12T17:37:58.123Z,9.19
2023-04-12T17:40:26.145Z,9.23
2023-04-12T17:42:54.112Z,9.17
2023-04-12T17:45:23.647Z,9.07
2023-04-12T17:47:51.665Z,8.92
2023-04-12T17:50:20.937Z,8.85
2023-04-12T17:52:48.991Z,8.79
2023-04-12T17:55:19.490Z,8.74
2023-04-12T17:57:47.357Z,8.57
2023-04-12T18:00:18.998Z,8.46
2023-04-12T18:02:47.679Z,8.31
2023-04-12T18:05:16.169Z,8.26
2023-04-12T18:07:45.372Z,8.20
2023-04-12T18:10:15.777Z,8.08
2023-04-12T18:12:45.064Z,8.00
2023-04-12T18:15:13.011Z,7.98
2023-04-12T18:17:41.391Z,7.92
2023-04-12T18:20:11.417Z,7.84
2023-04-12T18:22:40.006Z,7.77
2023-04-12T18:25:11.742Z,7.70
2023-04-12T18:27:39.751Z,7.56
2023-04-12T18:30:09.470Z,7.66
2023-04-12T18:32:37.555Z,7.68
2023-04-12T18:35:05.945Z,7.68
2023-04-12T18:37:33.818Z,7.70
2023-04-12T18:40:02.036Z,7.68
2023-04-12T18:42:31.251Z,7.58
2023-04-12T18:44:59.088Z,7.54
2023-04-12T18:47:27.515Z,7.50
2023-04-12T18:49:56.484Z,7.45
2023-04-12T18:52:24.529Z,7.51
2023-04-12T18:54:52.357Z,7.47
2023-04-12T18:57:20.121Z,7.51
2023-04-12T18:59:49.719Z,7.50
2023-04-12T19:02:18.294Z,7.39
2023-04-12T19:04:46.217Z,7.34
2023-04-12T19:07:14.714Z,7.39
2023-04-12T19:09:42.466Z,7.20
2023-04-12T19:12:10.339Z,7.29
2023-04-12T19:14:38.879Z,7.25
2023-04-12T19:17:08.369Z,7.12
2023-04-12T19:19:36.265Z,7.11
2023-04-12T19:22:04.191Z,7.06
2023-04-12T19:24:32.544Z,7.04
2023-04-12T19:27:01.387Z,6.98
2023-04-12T19:29:29.399Z,6.99
2023-04-12T19:31:58.156Z,6.96
2023-04-12T19:34:27.539Z,6.95
2023-04-12T19:36:55.676Z,6.89
2023-04-12T19:39:24.000Z,6.83
2023-04-12T19:41:52.572Z,6.85
2023-04-12T19:44:20.611Z,6.82
2023-04-12T19:46:48.470Z,6.85
2023-04-12T19:49:16.264Z,6.87
2023-04-12T19:51:46.206Z,6.84
2023-04-12T19:54:14.147Z,6.83
2023-04-12T19:56:42.647Z,6.83
2023-04-12T19:59:10.876Z,6.80
2023-04-12T20:01:47.894Z,6.82
2023-04-12T20:04:16.705Z,6.77
2023-04-12T20:06:46.142Z,6.83
2023-04-12T20:09:14.863Z,6.87
2023-04-12T20:11:42.861Z,6.92
2023-04-12T20:14:10.712Z,6.92
2023-04-12T20:16:42.707Z,6.90
2023-04-12T20:19:11.202Z,6.92
2023-04-12T20:21:39.387Z,6.94
2023-04-12T20:24:09.365Z,6.99
2023-04-12T20:26:37.459Z,7.00
2023-04-12T20:29:05.412Z,7.04
2023-04-12T20:31:33.699Z,7.11
2023-04-12T20:34:01.602Z,7.18
2023-04-12T20:36:29.790Z,7.30
2023-04-12T20:38:58.114Z,7.21
2023-04-12T20:41:28.066Z,7.39
2023-04-12T20:43:55.962Z,7.43
2023-04-12T20:46:25.948Z,7.49
2023-04-12T20:48:56.244Z,7.58
2023-04-12T20:51:24.845Z,7.67
2023-04-12T20:53:52.983Z,7.68
2023-04-12T20:56:20.894Z,7.64
2023-04-12T20:58:50.207Z,7.64
2023-04-12T21:01:18.792Z,7.65
2023-04-12T21:03:47.474Z,7.63
2023-04-12T21:06:15.818Z,7.61
2023-04-12T21:08:44.667Z,7.61
2023-04-12T21:11:12.501Z,7.58
2023-04-12T21:13:40.716Z,7.53
2023-04-12T21:16:14.574Z,7.53
2023-04-12T21:18:42.790Z,7.51
2023-04-12T21:21:10.665Z,7.45
2023-04-12T21:23:38.688Z,7.52
2023-04-12T21:26:07.162Z,7.46
2023-04-12T21:28:35.099Z,7.49
2023-04-12T21:31:04.193Z,7.55
2023-04-12T21:33:34.788Z,7.54
2023-04-12T21:36:02.886Z,7.51
2023-04-12T21:38:31.348Z,7.51
2023-04-12T21:41:06.186Z,7.54
2023-04-12T21:43:34.402Z,7.48
2023-04-12T21:46:02.275Z,7.49
2023-04-12T21:48:30.668Z,7.46
2023-04-12T21:50:59.813Z,7.48
2023-04-12T21:53:28.486Z,7.39
2023-04-12T21:55:56.379Z,7.32
2023-04-12T21:58:24.356Z,7.22
2023-04-12T22:00:52.551Z,7.37
2023-04-12T22:03:20.531Z,7.34
2023-04-12T22:06:00.840Z,7.25
2023-04-12T22:08:34.274Z,7.15
2023-04-12T22:11:02.353Z,7.11
2023-04-12T22:13:30.831Z,7.06
2023-04-12T22:16:00.829Z,7.02
2023-04-12T22:18:28.694Z,7.00
2023-04-12T22:20:57.814Z,6.97
2023-04-12T22:23:25.744Z,6.97
2023-04-12T22:25:58.639Z,7.00
2023-04-12T22:28:26.445Z,6.98
2023-04-12T22:30:57.146Z,6.93
2023-04-12T22:33:25.286Z,6.99
2023-04-12T22:35:53.066Z,6.98
2023-04-12T22:38:21.058Z,7.00
2023-04-12T22:40:48.879Z,7.03
2023-04-12T22:43:22.313Z,7.09
2023-04-12T22:45:53.947Z,6.98
2023-04-12T22:48:24.992Z,7.01
2023-04-12T22:50:54.563Z,7.07
2023-04-12T22:53:22.690Z,7.10
2023-04-12T22:55:50.522Z,7.11
2023-04-12T22:58:19.692Z,7.13
2023-04-12T23:00:49.354Z,7.14
2023-04-12T23:03:17.791Z,7.09
2023-04-12T23:05:45.905Z,7.03
2023-04-12T23:08:14.993Z,6.94
2023-04-12T23:10:43.260Z,6.90
2023-04-12T23:13:12.202Z,6.75
2023-04-12T23:15:42.759Z,6.73
2023-04-12T23:18:10.963Z,6.71
2023-04-12T23:20:40.305Z,6.69
2023-04-12T23:23:08.384Z,6.63
2023-04-12T23:25:39.942Z,6.83
2023-04-12T23:28:13.028Z,7.00
2023-04-12T23:30:44.139Z,6.94
2023-04-12T23:33:12.715Z,6.79
2023-04-12T23:35:42.495Z,6.73
2023-04-12T23:38:15.479Z,6.69
2023-04-12T23:40:44.203Z,6.92
2023-04-12T23:43:12.268Z,6.84
2023-04-12T23:45:40.152Z,6.79
2023-04-12T23:48:09.486Z,6.77
2023-04-12T23:50:37.730Z,6.73
2023-04-12T23:53:06.078Z,6.94
2023-04-12T23:55:34.126Z,7.01
2023-04-12T23:58:02.277Z,6.87
